createdAt,value
2023-01-02T00:01:46.634Z,13.70
2023-01-02T00:04:16.817Z,13.70
2023-01-02T00:06:46.188Z,13.70
2023-01-02T00:09:15.324Z,13.70
2023-01-02T00:11:44.720Z,13.70
2023-01-02T00:14:16.615Z,13.70
2023-01-02T00:16:45.754Z,13.70
2023-01-02T00:19:16.474Z,13.70
2023-01-02T00:21:45.597Z,13.70
2023-01-02T00:24:14.669Z,13.70
2023-01-02T00:26:43.730Z,13.70
2023-01-02T00:29:13.941Z,13.70
2023-01-02T00:31:43.316Z,13.70
2023-01-02T00:34:12.486Z,13.70
2023-01-02T00:36:43.284Z,13.70
2023-01-02T00:39:13.823Z,13.60
2023-01-02T00:41:43.198Z,13.60
2023-01-02T00:44:12.300Z,13.70
2023-01-02T00:46:41.256Z,13.60
2023-01-02T00:49:10.345Z,13.60
2023-01-02T00:51:39.406Z,13.60
2023-01-02T00:54:10.393Z,13.70
2023-01-02T00:56:39.393Z,13.70
2023-01-02T00:59:08.355Z,13.70
2023-01-02T01:01:37.622Z,13.70
2023-01-02T01:04:06.954Z,13.70
2023-01-02T01:06:36.164Z,13.70
2023-01-02T01:09:05.233Z,13.70
2023-01-02T01:11:35.836Z,13.70
2023-01-02T01:14:04.987Z,13.70
2023-01-02T01:16:34.101Z,13.70
2023-01-02T01:19:03.110Z,13.70
2023-01-02T01:21:32.084Z,13.70
2023-01-02T01:24:01.297Z,13.70
2023-01-02T01:26:30.620Z,13.70
2023-01-02T01:29:01.932Z,13.70
2023-01-02T01:31:31.371Z,13.70
2023-01-02T01:34:00.663Z,13.70
2023-01-02T01:36:29.824Z,13.70
2023-01-02T01:38:58.888Z,13.70
2023-01-02T01:41:28.142Z,13.70
2023-01-02T01:43:58.357Z,13.70
2023-01-02T01:46:34.958Z,13.70
2023-01-02T01:49:06.754Z,13.80
2023-01-02T01:51:41.037Z,13.70
2023-01-02T01:54:15.235Z,13.70
2023-01-02T01:56:50.369Z,13.70
2023-01-02T01:59:20.129Z,13.70
2023-01-02T02:01:51.871Z,13.70
2023-01-02T02:04:25.086Z,13.70
2023-01-02T02:06:55.609Z,13.70
2023-01-02T02:09:32.194Z,13.70
2023-01-02T02:12:02.219Z,13.70
2023-01-02T02:14:31.577Z,13.70
2023-01-02T02:17:08.671Z,13.70
2023-01-02T02:20:02.405Z,13.70
2023-01-02T02:23:02.723Z,13.70
2023-01-02T02:25:56.088Z,13.70
2023-01-02T02:29:06.068Z,13.70
2023-01-02T02:31:44.500Z,13.70
2023-01-02T02:34:23.562Z,13.70
2023-01-02T02:37:00.835Z,13.70
2023-01-02T02:39:46.523Z,13.70
2023-01-02T02:42:29.604Z,13.70
2023-01-02T02:45:07.523Z,13.60
2023-01-02T02:47:49.157Z,13.60
2023-01-02T02:50:28.437Z,13.60
2023-01-02T02:53:02.825Z,13.60
2023-01-02T02:55:36.280Z,13.60
2023-01-02T02:58:06.694Z,13.60
2023-01-02T03:00:35.941Z,13.60
2023-01-02T03:03:17.536Z,13.50
2023-01-02T03:06:03.783Z,13.50
2023-01-02T03:08:42.508Z,13.50
2023-01-02T03:11:15.220Z,13.50
2023-01-02T03:13:54.901Z,13.50
2023-01-02T03:16:29.124Z,13.50
2023-01-02T03:19:06.839Z,13.50
2023-01-02T03:21:39.497Z,13.50
2023-01-02T03:24:11.835Z,13.40
2023-01-02T03:26:46.244Z,13.40
2023-01-02T03:29:18.694Z,13.40
2023-01-02T03:31:52.000Z,13.40
2023-01-02T03:34:24.938Z,13.40
2023-01-02T03:36:57.263Z,13.40
2023-01-02T03:39:29.859Z,13.40
2023-01-02T03:42:03.132Z,13.40
2023-01-02T03:44:37.111Z,13.40
2023-01-02T03:47:16.210Z,13.40
2023-01-02T03:49:52.989Z,13.40
2023-01-02T03:52:25.988Z,13.40
2023-01-02T03:54:57.219Z,13.30
2023-01-02T03:57:34.572Z,13.30
2023-01-02T04:00:08.894Z,13.30
2023-01-02T04:02:50.999Z,13.30
2023-01-02T04:05:26.612Z,13.20
2023-01-02T04:08:01.036Z,13.20
2023-01-02T04:10:31.632Z,13.20
2023-01-02T04:13:05.399Z,13.20
2023-01-02T04:15:36.951Z,13.20
2023-01-02T04:18:09.972Z,13.20
2023-01-02T04:20:44.525Z,13.20
2023-01-02T04:23:17.339Z,13.20
2023-01-02T04:25:51.444Z,13.10
2023-01-02T04:28:25.834Z,13.10
2023-01-02T04:31:01.499Z,13.10
2023-01-02T04:33:33.027Z,13.10
2023-01-02T04:36:10.730Z,13.10
2023-01-02T04:38:39.969Z,13.10
2023-01-02T04:41:09.285Z,13.00
2023-01-02T04:43:38.183Z,13.00
2023-01-02T04:46:07.356Z,13.00
2023-01-02T04:48:36.233Z,13.00
2023-01-02T04:51:05.630Z,13.00
2023-01-02T04:53:35.956Z,13.00
2023-01-02T04:56:05.388Z,13.00
2023-01-02T04:58:34.556Z,13.00
2023-01-02T05:01:03.565Z,12.90
2023-01-02T05:03:32.686Z,12.90
2023-01-02T05:06:02.861Z,12.90
2023-01-02T05:08:33.093Z,12.90
2023-01-02T05:11:08.464Z,12.90
2023-01-02T05:13:38.812Z,12.90
2023-01-02T05:16:09.625Z,12.80
2023-01-02T05:18:39.047Z,12.80
2023-01-02T05:21:31.789Z,12.80
2023-01-02T05:24:01.818Z,12.80
2023-01-02T05:26:33.118Z,12.70
2023-01-02T05:29:02.790Z,12.80
2023-01-02T05:31:32.119Z,12.70
2023-01-02T05:34:01.142Z,12.70
2023-01-02T05:36:30.216Z,12.70
2023-01-02T05:38:59.373Z,12.70
2023-01-02T05:41:28.409Z,12.70
2023-01-02T05:43:58.823Z,12.70
2023-01-02T05:46:27.821Z,12.70
2023-01-02T05:48:59.287Z,12.70
2023-01-02T05:51:28.460Z,12.70
2023-01-02T05:53:57.899Z,12.70
2023-01-02T05:56:28.523Z,12.70
2023-01-02T05:58:59.400Z,12.70
2023-01-02T06:01:30.315Z,12.70
2023-01-02T06:04:01.127Z,12.60
2023-01-02T06:06:32.988Z,12.60
2023-01-02T06:09:02.427Z,12.60
2023-01-02T06:11:34.101Z,12.70
2023-01-02T06:14:04.893Z,12.70
2023-01-02T06:16:34.134Z,12.60
2023-01-02T06:19:03.297Z,12.60
2023-01-02T06:21:32.851Z,12.60
2023-01-02T06:24:02.205Z,12.60
2023-01-02T06:26:34.921Z,12.60
2023-01-02T06:29:06.296Z,12.60
2023-01-02T06:31:37.967Z,12.50
2023-01-02T06:34:10.793Z,12.50
2023-01-02T06:36:39.788Z,12.50
2023-01-02T06:39:08.673Z,12.50
2023-01-02T06:41:37.662Z,12.50
2023-01-02T06:44:08.350Z,12.50
2023-01-02T06:46:37.251Z,12.40
2023-01-02T06:49:06.445Z,12.40
2023-01-02T06:51:35.451Z,12.40
2023-01-02T06:54:04.648Z,12.40
2023-01-02T06:56:33.848Z,12.40
2023-01-02T06:59:03.000Z,12.40
2023-01-02T07:01:33.528Z,12.50
2023-01-02T07:04:02.508Z,12.40
2023-01-02T07:06:31.522Z,12.40
2023-01-02T07:09:00.503Z,12.40
2023-01-02T07:11:29.360Z,12.40
2023-01-02T07:13:58.272Z,12.40
2023-01-02T07:16:29.889Z,12.40
2023-01-02T07:19:00.875Z,12.40
2023-01-02T07:21:31.551Z,12.40
2023-01-02T07:24:00.592Z,12.40
2023-01-02T07:26:29.805Z,12.30
2023-01-02T07:28:58.974Z,12.30
2023-01-02T07:31:30.098Z,12.30
2023-01-02T07:34:00.761Z,12.30
2023-01-02T07:36:29.989Z,12.30
2023-01-02T07:39:00.856Z,12.30
2023-01-02T07:41:30.214Z,12.30
2023-01-02T07:43:59.746Z,12.30
2023-01-02T07:46:29.035Z,12.30
2023-01-02T07:48:58.076Z,12.30
2023-01-02T07:51:28.688Z,12.30
2023-01-02T07:53:58.353Z,12.30
2023-01-02T07:56:27.976Z,12.30
2023-01-02T07:58:57.101Z,12.30
2023-01-02T08:01:26.577Z,12.30
2023-01-02T08:03:55.890Z,12.30
2023-01-02T08:06:25.054Z,12.40
2023-01-02T08:08:56.061Z,12.40
2023-01-02T08:11:25.157Z,12.40
2023-01-02T08:13:54.869Z,12.40
2023-01-02T08:16:24.423Z,12.40
2023-01-02T08:18:55.851Z,12.40
2023-01-02T08:21:26.456Z,12.40
2023-01-02T08:23:56.722Z,12.40
2023-01-02T08:26:25.734Z,12.40
2023-01-02T08:28:55.080Z,12.40
2023-01-02T08:31:24.203Z,12.30
2023-01-02T08:33:53.258Z,12.30
2023-01-02T08:36:22.366Z,12.40
2023-01-02T08:38:51.580Z,12.40
2023-01-02T08:41:33.742Z,12.40
2023-01-02T08:44:03.353Z,12.40
2023-01-02T08:46:38.531Z,12.50
2023-01-02T08:49:11.480Z,12.50
2023-01-02T08:51:41.283Z,12.50
2023-01-02T08:54:10.411Z,12.50
2023-01-02T08:56:41.505Z,12.60
2023-01-02T08:59:13.562Z,12.60
2023-01-02T09:01:43.092Z,12.70
2023-01-02T09:04:15.260Z,12.70
2023-01-02T09:06:45.082Z,12.70
2023-01-02T09:09:16.792Z,12.80
2023-01-02T09:11:50.880Z,12.80
2023-01-02T09:14:21.550Z,12.90
2023-01-02T09:16:51.919Z,12.90
2023-01-02T09:19:21.080Z,13.00
2023-01-02T09:21:50.333Z,13.00
2023-01-02T09:24:19.530Z,13.00
2023-01-02T09:26:49.924Z,13.10
2023-01-02T09:29:19.591Z,13.10
2023-01-02T09:31:48.797Z,13.10
2023-01-02T09:34:17.963Z,13.20
2023-01-02T09:36:47.826Z,13.20
2023-01-02T09:39:17.069Z,13.30
2023-01-02T09:41:51.622Z,13.40
2023-01-02T09:44:26.716Z,13.60
2023-01-02T09:47:00.236Z,13.70
2023-01-02T09:49:31.651Z,13.80
2023-01-02T09:52:01.130Z,14.00
2023-01-02T09:54:32.882Z,14.20
2023-01-02T09:57:24.139Z,14.30
2023-01-02T10:00:00.262Z,14.30
2023-01-02T10:02:43.339Z,14.40
2023-01-02T10:05:41.246Z,14.50
2023-01-02T10:08:25.100Z,14.50
2023-01-02T10:11:09.635Z,14.50
2023-01-02T10:14:17.588Z,14.50
2023-01-02T10:16:39.642Z,14.50
2023-01-02T10:19:16.027Z,14.50
2023-01-02T10:21:49.182Z,14.60
2023-01-02T10:24:24.223Z,14.70
2023-01-02T10:26:54.923Z,14.80
2023-01-02T10:29:30.328Z,15.10
2023-01-02T10:32:01.511Z,15.40
2023-01-02T10:34:41.152Z,15.60
2023-01-02T10:37:13.845Z,15.80
2023-01-02T10:39:44.947Z,16.10
2023-01-02T10:42:15.877Z,16.30
2023-01-02T10:44:48.116Z,16.50
2023-01-02T10:47:23.189Z,16.80
2023-01-02T10:49:54.101Z,17.00
2023-01-02T10:52:29.211Z,17.10
2023-01-02T10:55:00.547Z,17.10
2023-01-02T10:57:41.384Z,17.10
2023-01-02T11:00:28.820Z,17.00
2023-01-02T11:03:00.079Z,17.00
2023-01-02T11:05:30.924Z,17.00
2023-01-02T11:08:00.517Z,17.00
2023-01-02T11:10:35.088Z,17.10
2023-01-02T11:13:06.068Z,17.20
2023-01-02T11:15:48.790Z,17.40
2023-01-02T11:18:26.121Z,17.70
2023-01-02T11:21:04.063Z,18.00
2023-01-02T11:23:37.210Z,18.40
2023-01-02T11:26:11.558Z,18.60
2023-01-02T11:28:43.061Z,18.80
2023-01-02T11:31:16.983Z,18.90
2023-01-02T11:33:47.911Z,18.80
2023-01-02T11:36:19.460Z,18.80
2023-01-02T11:38:50.862Z,18.90
2023-01-02T11:41:48.086Z,19.10
2023-01-02T11:44:25.184Z,19.30
2023-01-02T11:46:56.808Z,19.50
2023-01-02T11:49:29.685Z,19.80
2023-01-02T11:52:02.639Z,20.10
2023-01-02T11:54:41.737Z,20.50
2023-01-02T11:57:18.684Z,21.20
2023-01-02T11:59:51.537Z,21.80
2023-01-02T12:02:31.035Z,22.50
2023-01-02T12:05:00.432Z,23.20
2023-01-02T12:07:43.782Z,23.70
2023-01-02T12:10:28.413Z,24.20
2023-01-02T12:13:16.599Z,24.50
2023-01-02T12:16:09.063Z,24.50
2023-01-02T12:18:59.693Z,24.30
2023-01-02T12:21:39.691Z,24.10
2023-01-02T12:24:44.810Z,23.70
2023-01-02T12:27:18.983Z,23.40
2023-01-02T12:30:11.383Z,23.00
2023-01-02T12:33:15.474Z,22.70
2023-01-02T12:36:01.873Z,22.40
2023-01-02T12:38:44.780Z,22.20
2023-01-02T12:41:25.192Z,21.90
2023-01-02T12:44:09.767Z,21.70
2023-01-02T12:46:55.249Z,21.40
2023-01-02T12:49:49.861Z,21.10
2023-01-02T12:52:35.668Z,20.90
2023-01-02T12:55:21.464Z,20.60
2023-01-02T12:57:56.301Z,20.30
2023-01-02T13:00:50.824Z,20.00
2023-01-02T13:03:39.034Z,19.70
2023-01-02T13:06:44.523Z,19.50
2023-01-02T13:09:11.028Z,19.30
2023-01-02T13:11:46.321Z,19.20
2023-01-02T13:14:19.716Z,19.10
2023-01-02T13:16:55.703Z,19.00
2023-01-02T13:19:35.419Z,18.90
2023-01-02T13:22:13.581Z,18.80
2023-01-02T13:24:45.419Z,18.70
2023-01-02T13:27:15.324Z,18.60
2023-01-02T13:29:52.728Z,18.50
2023-01-02T13:32:37.101Z,18.50
2023-01-02T13:35:11.932Z,18.40
2023-01-02T13:37:47.262Z,18.30
2023-01-02T13:40:35.074Z,18.20
2023-01-02T13:43:23.676Z,18.20
2023-01-02T13:46:06.682Z,18.10
2023-01-02T13:48:40.810Z,18.00
2023-01-02T13:51:17.036Z,17.90
2023-01-02T13:53:48.503Z,17.80
2023-01-02T13:56:21.381Z,17.70
2023-01-02T13:59:00.382Z,17.70
2023-01-02T14:01:51.268Z,17.60
2023-01-02T14:04:44.135Z,17.60
2023-01-02T14:07:45.900Z,17.60
2023-01-02T14:10:40.313Z,17.50
2023-01-02T14:13:38.746Z,17.50
2023-01-02T14:16:41.374Z,17.50
2023-01-02T14:19:22.998Z,17.40
2023-01-02T14:22:04.339Z,17.40
2023-01-02T14:24:37.152Z,17.40
2023-01-02T14:27:08.895Z,17.40
2023-01-02T14:29:52.749Z,17.30
2023-01-02T14:32:28.893Z,17.30
2023-01-02T14:34:59.799Z,17.30
2023-01-02T14:37:41.013Z,17.30
2023-01-02T14:40:19.516Z,17.20
2023-01-02T14:43:12.418Z,17.20
2023-01-02T14:45:46.243Z,17.10
2023-01-02T14:48:18.988Z,17.10
2023-01-02T14:50:50.498Z,17.10
2023-01-02T14:53:22.568Z,17.00
2023-01-02T14:55:56.222Z,17.00
2023-01-02T14:58:35.241Z,17.00
2023-01-02T15:01:06.900Z,17.00
2023-01-02T15:03:46.932Z,16.90
2023-01-02T15:06:24.492Z,16.90
2023-01-02T15:08:57.855Z,16.90
2023-01-02T15:11:45.484Z,16.90
2023-01-02T15:14:20.493Z,16.90
2023-01-02T15:16:59.223Z,16.80
2023-01-02T15:19:30.967Z,16.80
2023-01-02T15:22:02.516Z,16.80
2023-01-02T15:24:31.913Z,16.80
2023-01-02T15:27:13.904Z,16.80
2023-01-02T15:29:47.690Z,16.70
2023-01-02T15:32:22.227Z,16.70
2023-01-02T15:34:51.924Z,16.70
2023-01-02T15:37:23.556Z,16.70
2023-01-02T15:39:58.156Z,16.70
2023-01-02T15:42:59.257Z,16.70
2023-01-02T15:45:29.740Z,16.70
2023-01-02T15:48:00.966Z,16.60
2023-01-02T15:50:31.978Z,16.60
2023-01-02T15:53:04.286Z,16.60
2023-01-02T15:55:37.471Z,16.60
2023-01-02T15:58:43.307Z,16.60
2023-01-02T16:01:15.531Z,16.60
2023-01-02T16:04:01.274Z,16.50
2023-01-02T16:06:39.909Z,16.50
2023-01-02T16:09:18.495Z,16.50
2023-01-02T16:11:51.629Z,16.50
2023-01-02T16:14:27.042Z,16.50
2023-01-02T16:17:03.618Z,16.50
2023-01-02T16:19:38.014Z,16.50
2023-01-02T16:22:17.601Z,16.40
2023-01-02T16:24:58.554Z,16.40
2023-01-02T16:27:51.025Z,16.40
2023-01-02T16:30:34.031Z,16.40
2023-01-02T16:33:05.866Z,16.40
2023-01-02T16:35:37.190Z,16.40
2023-01-02T16:38:21.392Z,16.30
2023-01-02T16:41:03.133Z,16.30
2023-01-02T16:43:41.032Z,16.40
2023-01-02T16:46:16.023Z,16.30
2023-01-02T16:48:45.751Z,16.30
2023-01-02T16:51:18.296Z,16.30
2023-01-02T16:53:47.515Z,16.30
2023-01-02T16:56:17.137Z,16.30
2023-01-02T16:58:46.118Z,16.30
2023-01-02T17:01:17.824Z,16.30
2023-01-02T17:03:47.200Z,16.30
2023-01-02T17:06:19.331Z,16.20
2023-01-02T17:08:48.773Z,16.20
2023-01-02T17:11:20.568Z,16.20
2023-01-02T17:13:50.197Z,16.20
2023-01-02T17:16:19.982Z,16.20
2023-01-02T17:18:49.423Z,16.20
2023-01-02T17:21:19.983Z,16.20
2023-01-02T17:23:49.125Z,16.10
2023-01-02T17:26:18.112Z,16.10
2023-01-02T17:28:47.238Z,16.10
2023-01-02T17:31:18.903Z,16.10
2023-01-02T17:33:54.459Z,16.10
2023-01-02T17:36:26.170Z,16.10
2023-01-02T17:38:55.599Z,16.10
2023-01-02T17:41:24.805Z,16.00
2023-01-02T17:44:02.168Z,16.00
2023-01-02T17:49:23.115Z,16.00
2023-01-02T17:51:56.191Z,16.00
2023-01-02T17:54:36.983Z,16.00
2023-01-02T17:57:06.711Z,16.00
2023-01-02T17:59:36.956Z,16.00
2023-01-02T18:02:06.750Z,16.00
2023-01-02T18:04:35.874Z,16.00
2023-01-02T18:07:06.762Z,16.00
2023-01-02T18:09:35.886Z,16.00
2023-01-02T18:12:20.722Z,16.00
2023-01-02T18:15:04.089Z,16.00
2023-01-02T18:17:33.477Z,16.00
2023-01-02T18:20:07.272Z,16.00
2023-01-02T18:22:42.427Z,16.00
2023-01-02T18:25:20.430Z,16.00
2023-01-02T18:27:50.141Z,16.00
2023-01-02T18:30:24.556Z,15.90
2023-01-02T18:33:07.600Z,15.90
2023-01-02T18:38:32.708Z,15.80
2023-01-02T18:41:03.263Z,15.80
2023-01-02T18:43:35.864Z,15.80
2023-01-02T18:46:14.891Z,15.80
2023-01-02T18:48:44.932Z,15.80
2023-01-02T18:51:18.468Z,15.80
2023-01-02T18:53:51.212Z,15.80
2023-01-02T18:56:25.171Z,15.80
2023-01-02T18:59:01.260Z,15.80
2023-01-02T19:01:32.342Z,15.80
2023-01-02T19:04:27.249Z,15.80
2023-01-02T19:07:00.882Z,15.80
2023-01-02T19:09:33.689Z,15.70
2023-01-02T19:12:37.873Z,15.70
2023-01-02T19:15:40.783Z,15.70
2023-01-02T19:18:23.959Z,15.70
2023-01-02T19:21:12.724Z,15.70
2023-01-02T19:24:17.194Z,15.70
2023-01-02T19:26:52.815Z,15.60
2023-01-02T19:29:29.991Z,15.60
2023-01-02T19:32:19.612Z,15.60
2023-01-02T19:34:53.093Z,15.60
2023-01-02T19:37:35.612Z,15.60
2023-01-02T19:40:19.387Z,15.60
2023-01-02T19:42:52.670Z,15.60
2023-01-02T19:45:26.376Z,15.60
2023-01-02T19:48:02.607Z,15.60
2023-01-02T19:50:38.618Z,15.60
2023-01-02T19:53:11.474Z,15.50
2023-01-02T19:55:48.299Z,15.60
2023-01-02T19:58:19.951Z,15.50
2023-01-02T20:00:49.519Z,15.50
2023-01-02T20:03:21.445Z,15.50
2023-01-02T20:05:53.694Z,15.50
2023-01-02T20:08:22.999Z,15.50
2023-01-02T20:10:52.223Z,15.50
2023-01-02T20:13:23.088Z,15.50
2023-01-02T20:15:52.277Z,15.40
2023-01-02T20:18:21.327Z,15.40
2023-01-02T20:20:50.352Z,15.40
2023-01-02T20:23:20.673Z,15.40
2023-01-02T20:25:50.621Z,15.30
2023-01-02T20:28:20.009Z,15.30
2023-01-02T20:30:51.521Z,15.30
2023-01-02T20:33:20.711Z,15.20
2023-01-02T20:35:50.009Z,15.20
2023-01-02T20:38:19.633Z,15.20
2023-01-02T20:40:52.038Z,15.10
2023-01-02T20:43:21.149Z,15.10
2023-01-02T20:45:51.573Z,15.00
2023-01-02T20:48:21.184Z,14.90
2023-01-02T20:50:50.719Z,14.90
2023-01-02T20:53:19.985Z,14.80
2023-01-02T20:55:49.528Z,14.80
2023-01-02T20:58:25.047Z,14.80
2023-01-02T21:00:55.774Z,14.70
2023-01-02T21:03:25.587Z,14.70
2023-01-02T21:05:55.850Z,14.60
2023-01-02T21:08:25.302Z,14.60
2023-01-02T21:10:54.482Z,14.60
2023-01-02T21:13:23.861Z,14.50
2023-01-02T21:15:53.820Z,14.50
2023-01-02T21:18:30.917Z,14.40
2023-01-02T21:21:01.829Z,14.40
2023-01-02T21:23:32.134Z,14.30
2023-01-02T21:26:02.911Z,14.30
2023-01-02T21:28:33.228Z,14.20
2023-01-02T21:31:08.062Z,14.20
2023-01-02T21:33:41.597Z,14.10
2023-01-02T21:36:11.140Z,14.10
2023-01-02T21:38:42.835Z,14.10
2023-01-02T21:41:30.360Z,14.00
2023-01-02T21:43:59.999Z,14.00
2023-01-02T21:46:34.099Z,13.90
2023-01-02T21:49:17.347Z,13.90
2023-01-02T21:51:51.299Z,13.80
2023-01-02T21:54:26.612Z,13.80
2023-01-02T21:56:58.508Z,13.80
2023-01-02T21:59:28.846Z,13.80
2023-01-02T22:02:03.768Z,13.70
2023-01-02T22:04:37.458Z,13.70
2023-01-02T22:09:58.593Z,13.70
2023-01-02T22:12:29.834Z,13.70
2023-01-02T22:14:59.664Z,13.70
2023-01-02T22:17:30.023Z,13.60
2023-01-02T22:20:02.196Z,13.60
2023-01-02T22:22:31.485Z,13.60
2023-01-02T22:25:10.292Z,13.60
2023-01-02T22:27:51.180Z,13.60
2023-01-02T22:30:31.410Z,13.50
2023-01-02T22:33:07.187Z,13.50
2023-01-02T22:35:48.463Z,13.50
2023-01-02T22:38:25.669Z,13.50
2023-01-02T22:41:00.569Z,13.50
2023-01-02T22:43:38.668Z,13.50
2023-01-02T22:46:21.513Z,13.50
2023-01-02T22:49:24.112Z,13.50
2023-01-02T22:52:07.164Z,13.50
2023-01-02T22:54:37.054Z,13.50
2023-01-02T22:57:12.063Z,13.50
2023-01-02T22:59:42.226Z,13.50
2023-01-02T23:02:17.720Z,13.50
2023-01-02T23:05:16.073Z,13.50
2023-01-02T23:08:02.864Z,13.50
2023-01-02T23:10:53.982Z,13.50
2023-01-02T23:13:42.158Z,13.50
2023-01-02T23:16:54.042Z,13.50
2023-01-02T23:19:26.982Z,13.50
2023-01-02T23:21:58.494Z,13.50
2023-01-02T23:24:37.508Z,13.50
2023-01-02T23:27:22.707Z,13.40
2023-01-02T23:30:06.119Z,13.40
2023-01-02T23:32:52.540Z,13.40
2023-01-02T23:35:40.973Z,13.40
2023-01-02T23:41:24.357Z,13.40
2023-01-02T23:43:54.125Z,13.30
2023-01-02T23:46:24.955Z,13.30
2023-01-02T23:48:54.517Z,13.40
2023-01-02T23:51:26.116Z,13.40
2023-01-02T23:53:55.358Z,13.40
2023-01-02T23:56:27.913Z,13.30
2023-01-02T23:58:58.359Z,13.30
